Stations météo

réclame
Mon MeteoGroup
K13 Alpha, Pays-Bas (6252): Température de l'air & dewpoint: 15.01.2020 05:00:00 - 21.01.2020 05:00:00 (CET)K13 Alpha, Pays-Bas (6252): water temperature: 15.01.2020 05:00:00 - 21.01.2020 05:00:00 (CET)K13 Alpha, Pays-Bas (6252): Vitesse du vent & gusts: 15.01.2020 05:00:00 - 21.01.2020 05:00:00 (CET)K13 Alpha, Pays-Bas (6252): Direction du vent: 15.01.2020 05:00:00 - 21.01.2020 05:00:00 (CET)K13 Alpha, Pays-Bas (6252): reduced air pressure: 15.01.2020 05:00:00 - 21.01.2020 05:00:00 (CET)
Date & Time tt [°C] td [°C] tw [°C] ff [km/h] ff [knt] fx [km/h] fx [knt] dd ppp [hPa]
21.01.2020 05:00:00 - - - - - - - - -
21.01.2020 04:00:00 6,4 4,3 8,3 21 11 22 12 WSW 1041,8
21.01.2020 03:00:00 6,3 4,5 8,2 21 11 22 12 WSW 1042,2
21.01.2020 02:00:00 6,5 4,2 8,2 22 12 22 12 WSW 1042,6
21.01.2020 01:00:00 6,6 3,9 8,1 21 11 25 14 WSW 1043,0
21.01.2020 00:00:00 6,7 4,0 8,1 24 13 29 16 WSW 1043,4
20.01.2020 23:00:00 6,8 3,9 8,0 29 16 29 16 W 1043,6
20.01.2020 22:00:00 6,9 3,8 8,1 28 15 29 16 W 1044,0
20.01.2020 21:00:00 6,9 3,8 8,2 28 15 29 16 WSW 1044,3
20.01.2020 20:00:00 6,8 3,8 8,2 26 14 25 14 WSW 1044,5
20.01.2020 19:00:00 6,7 3,7 8,3 26 14 25 14 WSW 1044,7
20.01.2020 18:00:00 7,0 3,8 8,4 22 12 29 16 WSW 1044,9
20.01.2020 17:00:00 7,0 3,7 8,4 28 15 29 16 WSW 1045,1
20.01.2020 16:00:00 6,9 3,9 8,4 29 16 29 16 WSW 1045,5
20.01.2020 15:00:00 7,1 3,8 8,4 28 15 29 16 W 1045,5
20.01.2020 14:00:00 7,1 4,3 8,3 28 15 29 16 W 1046,0
20.01.2020 13:00:00 7,0 4,3 8,3 26 14 25 14 W 1046,5
20.01.2020 12:00:00 6,8 4,1 8,3 26 14 29 16 W 1046,8
20.01.2020 11:00:00 6,9 3,9 8,2 28 15 29 16 W 1046,7
20.01.2020 10:00:00 6,7 4,4 8,2 28 15 29 16 W 1047,0
20.01.2020 09:00:00 7,0 4,0 8,2 24 13 25 14 W 1046,9
20.01.2020 08:00:00 7,2 3,5 8,2 24 13 25 14 W 1046,9
20.01.2020 07:00:00 7,1 4,0 8,3 21 11 25 14 W 1046,7
20.01.2020 06:00:00 7,1 3,4 8,4 24 13 25 14 W 1046,8
20.01.2020 05:00:00 7,0 3,6 8,4 24 13 25 14 W 1046,9
20.01.2020 04:00:00 7,0 3,6 8,5 22 12 22 12 WNW 1047,0
20.01.2020 03:00:00 7,1 3,3 8,5 24 13 25 14 WNW 1047,7
20.01.2020 02:00:00 7,0 3,9 8,4 26 14 25 14 WNW 1047,5
20.01.2020 01:00:00 7,0 3,3 8,4 26 14 25 14 WNW 1047,7
20.01.2020 00:00:00 7,1 3,8 8,3 21 11 22 12 W 1047,5
19.01.2020 23:00:00 7,2 3,4 8,3 18 10 22 12 W 1047,2
19.01.2020 22:00:00 7,2 3,5 8,3 21 11 22 12 WNW 1047,1
19.01.2020 21:00:00 7,1 4,1 8,3 21 11 22 12 NW 1046,9
19.01.2020 20:00:00 7,1 4,0 8,4 22 12 25 14 NW 1046,6
19.01.2020 19:00:00 7,2 4,4 8,4 28 15 32 18 NNW 1046,2
19.01.2020 18:00:00 7,2 4,3 8,5 28 15 29 16 NNW 1045,9
19.01.2020 17:00:00 7,4 4,3 8,5 29 16 32 18 NNW 1044,9
19.01.2020 16:00:00 7,7 4,3 8,6 31 17 32 18 NNW 1044,0
19.01.2020 15:00:00 7,8 4,3 8,6 31 17 36 19 N 1043,6
19.01.2020 14:00:00 7,8 4,2 8,6 37 20 40 21 N 1043,4
19.01.2020 13:00:00 7,8 4,4 8,5 37 20 40 21 N 1043,0
19.01.2020 12:00:00 7,9 5,0 8,5 37 20 36 19 N 1042,6
19.01.2020 11:00:00 7,9 4,6 8,4 35 19 36 19 N 1041,7
19.01.2020 10:00:00 7,9 4,4 8,3 34 18 36 19 N 1040,9
19.01.2020 09:00:00 7,6 4,1 8,3 35 19 43 23 N 1039,7
19.01.2020 08:00:00 7,5 3,2 8,3 42 23 47 25 N 1038,4
19.01.2020 07:00:00 7,3 2,7 8,4 46 25 54 29 N 1036,9
19.01.2020 06:00:00 7,5 2,7 8,4 48 26 50 27 N 1035,9
19.01.2020 05:00:00 6,3 1,7 8,4 48 26 50 27 N 1035,4
19.01.2020 04:00:00 5,4 1,8 8,5 55 30 61 33 NNE 1034,8
19.01.2020 03:00:00 6,0 2,7 8,5 37 20 72 39 N 1034,1
19.01.2020 02:00:00 7,0 2,7 8,6 46 25 54 29 NNW 1032,9
19.01.2020 01:00:00 6,8 2,5 8,6 46 25 50 27 NNW 1032,1
19.01.2020 00:00:00 7,2 2,0 8,6 44 24 54 29 NNW 1031,4
18.01.2020 23:00:00 7,2 2,4 8,6 44 24 50 27 NNW 1030,5
18.01.2020 22:00:00 7,4 2,4 8,5 41 22 43 23 NNW 1030,1
18.01.2020 21:00:00 6,9 2,0 8,5 42 23 47 25 NW 1029,6
18.01.2020 20:00:00 7,0 1,8 8,5 42 23 43 23 NNW 1028,8
18.01.2020 19:00:00 7,1 2,4 8,5 39 21 43 23 NNW 1028,1
18.01.2020 18:00:00 7,0 2,9 8,5 41 22 43 23 NW 1027,3
18.01.2020 17:00:00 7,1 2,6 8,6 42 23 43 23 NW 1026,2
18.01.2020 16:00:00 7,2 2,4 8,6 41 22 40 21 NW 1025,3
18.01.2020 15:00:00 7,2 1,8 8,7 42 23 43 23 NW 1024,6
18.01.2020 14:00:00 7,1 1,9 8,7 46 25 47 25 NW 1024,0
18.01.2020 13:00:00 7,1 3,2 8,8 48 26 50 27 WNW 1023,2
18.01.2020 12:00:00 6,6 2,4 8,8 44 24 47 25 WNW 1022,8
18.01.2020 11:00:00 6,7 2,2 8,7 46 25 47 25 WNW 1022,2
18.01.2020 10:00:00 6,7 1,4 8,7 41 22 43 23 WNW 1021,5
18.01.2020 09:00:00 6,8 1,7 8,6 44 24 43 23 WNW 1020,4
18.01.2020 08:00:00 6,9 1,3 8,6 42 23 47 25 WNW 1019,3
18.01.2020 07:00:00 6,9 2,4 8,6 46 25 47 25 WNW 1018,6
18.01.2020 06:00:00 6,8 3,3 8,5 44 24 54 29 W 1018,0
18.01.2020 05:00:00 6,6 3,7 8,6 48 26 50 27 W 1017,4
18.01.2020 04:00:00 6,2 3,3 8,6 48 26 50 27 W 1017,1
18.01.2020 03:00:00 6,2 3,3 8,6 50 27 50 27 WSW 1016,8
18.01.2020 02:00:00 6,3 2,9 8,8 50 27 50 27 W 1016,1
18.01.2020 01:00:00 6,6 3,0 8,8 54 29 54 29 W 1015,8
18.01.2020 00:00:00 6,8 3,1 8,8 54 29 54 29 W 1015,4
17.01.2020 23:00:00 7,0 3,1 8,8 55 30 58 31 W 1014,8
17.01.2020 22:00:00 7,0 3,3 8,8 61 33 65 35 W 1014,1
17.01.2020 21:00:00 5,0 2,3 8,7 50 27 61 33 WNW 1013,6
17.01.2020 20:00:00 6,3 2,3 8,7 67 36 72 39 WNW 1012,3
17.01.2020 19:00:00 6,1 4,1 8,7 59 32 68 37 W 1010,5
17.01.2020 18:00:00 8,5 5,1 8,7 42 23 50 27 WSW 1009,7
17.01.2020 17:00:00 9,0 5,8 8,7 46 25 50 27 SW 1009,0
17.01.2020 16:00:00 9,5 6,4 8,8 48 26 54 29 SW 1008,9
17.01.2020 15:00:00 9,6 6,7 8,9 44 24 47 25 SW 1008,7
17.01.2020 14:00:00 9,5 7,2 8,9 44 24 43 23 SW 1008,9
17.01.2020 13:00:00 9,8 8,1 9,1 44 24 50 27 SSW 1009,2
17.01.2020 12:00:00 9,8 8,7 9,2 46 25 47 25 SSW 1009,7
17.01.2020 11:00:00 9,7 8,8 9,1 42 23 47 25 SSW 1009,9
17.01.2020 10:00:00 9,6 9,0 9,1 37 20 40 21 S 1010,0
17.01.2020 09:00:00 9,3 8,6 9,0 37 20 36 19 S 1010,0
17.01.2020 08:00:00 9,3 8,4 9,0 39 21 36 19 SSW 1010,0
17.01.2020 07:00:00 9,4 8,3 8,8 34 18 40 21 SW 1010,1
17.01.2020 06:00:00 9,3 8,3 8,6 34 18 40 21 SSW 1010,4
17.01.2020 05:00:00 9,7 7,8 8,6 42 23 43 23 SSW 1010,7
17.01.2020 04:00:00 10,2 7,5 8,6 48 26 50 27 SSW 1011,1
17.01.2020 03:00:00 10,6 7,4 8,7 52 28 50 27 SSW 1011,5
17.01.2020 02:00:00 10,8 7,3 8,8 54 29 58 31 SSW 1011,8
17.01.2020 01:00:00 10,7 7,4 8,9 54 29 61 33 S 1012,1
17.01.2020 00:00:00 10,4 7,4 9,0 57 31 65 35 S 1012,4
16.01.2020 23:00:00 10,6 7,3 9,0 63 34 68 37 S 1012,6
16.01.2020 22:00:00 10,4 7,4 8,9 63 34 68 37 S 1012,8
16.01.2020 21:00:00 10,5 7,5 8,8 68 37 68 37 S 1013,3
16.01.2020 20:00:00 10,3 7,6 8,7 65 35 68 37 S 1014,2
16.01.2020 19:00:00 10,0 7,5 8,6 63 34 65 35 S 1014,4
16.01.2020 18:00:00 9,4 7,1 8,6 61 33 65 35 S 1015,0
16.01.2020 17:00:00 8,7 6,9 8,5 55 30 58 31 S 1015,7
16.01.2020 16:00:00 8,6 6,4 8,5 55 30 58 31 S 1016,7
16.01.2020 15:00:00 8,9 6,0 8,5 54 29 54 29 S 1017,2
16.01.2020 14:00:00 9,0 5,7 8,6 48 26 54 29 S 1018,5
16.01.2020 13:00:00 9,0 5,4 8,7 48 26 54 29 S 1019,7
16.01.2020 12:00:00 9,0 5,3 8,8 48 26 54 29 S 1020,3
16.01.2020 11:00:00 8,8 6,3 8,8 46 25 47 25 S 1020,8
16.01.2020 10:00:00 9,1 6,9 8,8 42 23 43 23 S 1021,1
16.01.2020 09:00:00 9,3 6,4 8,7 42 23 43 23 SSW 1021,0
16.01.2020 08:00:00 9,0 6,2 8,6 41 22 43 23 SW 1020,8
16.01.2020 07:00:00 8,9 6,2 8,5 42 23 50 27 SW 1020,8
16.01.2020 06:00:00 8,9 6,0 8,4 44 24 50 27 SW 1020,5
16.01.2020 05:00:00 8,7 5,2 8,4 46 25 47 25 SW 1020,4
16.01.2020 04:00:00 8,9 4,9 8,4 46 25 50 27 SW 1019,7
16.01.2020 03:00:00 8,7 4,6 8,4 46 25 50 27 WSW 1019,1
16.01.2020 02:00:00 8,6 4,6 8,5 46 25 50 27 WSW 1018,2
16.01.2020 01:00:00 8,7 4,4 8,6 43 23 54 29 WSW 1017,7
16.01.2020 00:00:00 8,7 4,3 8,6 54 29 58 31 WSW 1016,7
15.01.2020 23:00:00 8,7 4,3 8,7 55 30 58 31 WSW 1015,9
15.01.2020 22:00:00 8,7 4,6 8,8 57 31 61 33 WSW 1014,8
15.01.2020 21:00:00 8,8 4,3 8,7 57 31 58 31 SW 1013,7
15.01.2020 20:00:00 8,7 5,4 8,7 54 29 61 33 SW 1012,6
15.01.2020 19:00:00 8,5 5,2 8,6 52 28 54 29 SW 1011,3
15.01.2020 18:00:00 8,1 5,3 8,5 52 28 54 29 SW 1010,3
15.01.2020 17:00:00 8,0 4,8 8,4 52 28 54 29 SW 1009,1
15.01.2020 16:00:00 8,2 4,6 8,4 46 25 47 25 SW 1007,5
15.01.2020 15:00:00 7,9 3,7 8,4 41 22 50 27 SW 1006,0
15.01.2020 14:00:00 7,7 3,1 8,4 44 24 50 27 WSW 1005,5
15.01.2020 13:00:00 7,5 4,5 8,6 34 18 32 18 WSW 1004,3
15.01.2020 12:00:00 7,1 5,4 8,7 22 12 25 14 W 1003,7
15.01.2020 11:00:00 7,3 5,3 8,8 16 9 32 18 WSW 1002,9
15.01.2020 10:00:00 7,3 6,6 8,8 11 6 22 12 SW 1002,6
15.01.2020 09:00:00 7,0 6,3 8,8 11 6 14 8 WSW 1001,9
15.01.2020 08:00:00 6,9 6,2 8,7 21 11 25 14 WNW 1001,4
15.01.2020 07:00:00 7,0 6,1 - 28 15 43 23 NW 1000,6
15.01.2020 06:00:00 8,4 6,7 8,8 76 41 86 47 SW 998,8
15.01.2020 05:00:00 11,3 7,9 8,8 78 42 83 45 SSW 997,3

tt = Température de l'air
td = dewpoint
tw = water temperature
ff = Vitesse du vent
fx = gusts
dd = Direction du vent
ppp = reduced air pressure

stations d'obs. à proximité